sensor_id;sensor_type;location;lat;lon;timestamp;pressure;altitude;pressure_sealevel;temperature;humidity
76847;BME280;65813;49.546;8.644;2023-02-01T05:17:37;101202.94;;;4.40;92.78
76847;BME280;65813;49.546;8.644;2023-02-01T05:21:40;101201.19;;;4.39;92.67
76847;BME280;65813;49.546;8.644;2023-02-01T05:25:43;101207.19;;;4.44;92.61
76847;BME280;65813;49.546;8.644;2023-02-01T05:29:43;101230.56;;;4.55;91.88
76847;BME280;65813;49.546;8.644;2023-02-01T05:33:44;101220.38;;;4.44;93.25
76847;BME280;65813;49.546;8.644;2023-02-01T05:37:44;101225.69;;;4.43;92.88
76847;BME280;65813;49.546;8.644;2023-02-01T05:41:45;101195.13;;;4.37;94.12
76847;BME280;65813;49.546;8.644;2023-02-01T05:45:45;101187.31;;;4.34;94.65
76847;BME280;65813;49.546;8.644;2023-02-01T05:49:45;101183.81;;;4.34;94.72
76847;BME280;65813;49.546;8.644;2023-02-01T05:53:45;101174.03;;;4.37;94.06
76847;BME280;65813;49.546;8.644;2023-02-01T05:57:46;101173.97;;;4.39;93.86
76847;BME280;65813;49.546;8.644;2023-02-01T06:01:47;101165.94;;;4.42;93.39
76847;BME280;65813;49.546;8.644;2023-02-01T06:05:48;101162.50;;;4.40;92.77
76847;BME280;65813;49.546;8.644;2023-02-01T06:09:48;101165.00;;;4.44;92.41
76847;BME280;65813;49.546;8.644;2023-02-01T06:13:48;101167.66;;;4.43;91.80
76847;BME280;65813;49.546;8.644;2023-02-01T06:17:49;101182.63;;;4.42;92.01
76847;BME280;65813;49.546;8.644;2023-02-01T06:21:49;101194.84;;;4.45;91.63
76847;BME280;65813;49.546;8.644;2023-02-01T06:25:51;101186.13;;;4.43;91.72
76847;BME280;65813;49.546;8.644;2023-02-01T06:29:51;101183.06;;;4.55;91.11
76847;BME280;65813;49.546;8.644;2023-02-01T06:33:52;101175.47;;;4.46;91.06
76847;BME280;65813;49.546;8.644;2023-02-01T06:37:53;101179.84;;;4.47;91.28
76847;BME280;65813;49.546;8.644;2023-02-01T06:41:53;101183.38;;;4.46;91.82
76847;BME280;65813;49.546;8.644;2023-02-01T06:46:14;101181.56;;;4.48;91.53
76847;BME280;65813;49.546;8.644;2023-02-01T06:50:15;101185.38;;;4.39;91.94
76847;BME280;65813;49.546;8.644;2023-02-01T06:54:15;101192.28;;;4.43;92.08
76847;BME280;65813;49.546;8.644;2023-02-01T06:58:16;101197.69;;;4.39;92.18
76847;BME280;65813;49.546;8.644;2023-02-01T07:02:16;101194.47;;;4.31;92.32
76847;BME280;65813;49.546;8.644;2023-02-01T07:06:17;101190.16;;;4.28;92.29
76847;BME280;65813;49.546;8.644;2023-02-01T07:10:18;101190.03;;;4.31;92.41
76847;BME280;65813;49.546;8.644;2023-02-01T07:14:18;101194.47;;;4.31;91.79
76847;BME280;65813;49.546;8.644;2023-02-01T07:18:18;101200.50;;;4.34;92.39
76847;BME280;65813;49.546;8.644;2023-02-01T07:22:19;101190.91;;;4.32;92.49
76847;BME280;65813;49.546;8.644;2023-02-01T07:26:21;101185.63;;;4.32;92.49
76847;BME280;65813;49.546;8.644;2023-02-01T07:30:21;101190.22;;;4.27;91.78
76847;BME280;65813;49.546;8.644;2023-02-01T07:34:21;101184.13;;;4.25;91.61
76847;BME280;65813;49.546;8.644;2023-02-01T07:38:22;101203.59;;;4.21;92.13
76847;BME280;65813;49.546;8.644;2023-02-01T07:42:23;101208.34;;;4.36;91.43
76847;BME280;65813;49.546;8.644;2023-02-01T07:46:24;101217.75;;;4.44;91.07
76847;BME280;65813;49.546;8.644;2023-02-01T07:50:24;101213.22;;;4.48;90.50
76847;BME280;65813;49.546;8.644;2023-02-01T07:54:24;101219.41;;;4.47;90.60
76847;BME280;65813;49.546;8.644;2023-02-01T07:58:25;101221.16;;;4.46;90.44
76847;BME280;65813;49.546;8.644;2023-02-01T08:02:25;101230.09;;;4.42;90.74
76847;BME280;65813;49.546;8.644;2023-02-01T08:06:27;101248.53;;;4.44;90.48
76847;BME280;65813;49.546;8.644;2023-02-01T08:10:28;101252.97;;;4.42;90.59
76847;BME280;65813;49.546;8.644;2023-02-01T08:14:29;101267.78;;;4.46;90.19
76847;BME280;65813;49.546;8.644;2023-02-01T08:18:29;101258.97;;;4.47;89.95
76847;BME280;65813;49.546;8.644;2023-02-01T08:22:33;101265.69;;;4.55;89.75
76847;BME280;65813;49.546;8.644;2023-02-01T08:26:33;101272.53;;;4.61;89.13
76847;BME280;65813;49.546;8.644;2023-02-01T08:30:35;101278.56;;;4.65;88.62
76847;BME280;65813;49.546;8.644;2023-02-01T08:34:36;101273.94;;;4.71;88.49
76847;BME280;65813;49.546;8.644;2023-02-01T08:38:37;101280.97;;;4.72;87.99
76847;BME280;65813;49.546;8.644;2023-02-01T08:42:38;101271.03;;;4.79;87.10
76847;BME280;65813;49.546;8.644;2023-02-01T08:47:04;101271.63;;;4.87;85.51
76847;BME280;65813;49.546;8.644;2023-02-01T08:51:08;101264.41;;;4.92;84.65
76847;BME280;65813;49.546;8.644;2023-02-01T08:55:10;101272.56;;;4.86;85.04
76847;BME280;65813;49.546;8.644;2023-02-01T08:59:10;101277.75;;;4.87;84.28
76847;BME280;65813;49.546;8.644;2023-02-01T09:03:11;101271.19;;;4.99;84.46
76847;BME280;65813;49.546;8.644;2023-02-01T09:07:12;101281.91;;;4.94;85.47
76847;BME280;65813;49.546;8.644;2023-02-01T09:11:15;101278.84;;;5.06;85.49
76847;BME280;65813;49.546;8.644;2023-02-01T09:15:16;101278.88;;;5.05;85.50
76847;BME280;65813;49.546;8.644;2023-02-01T09:19:16;101281.50;;;5.30;83.74
76847;BME280;65813;49.546;8.644;2023-02-01T09:23:17;101275.72;;;5.19;84.64
76847;BME280;65813;49.546;8.644;2023-02-01T09:27:17;101277.00;;;5.32;84.16
76847;BME280;65813;49.546;8.644;2023-02-01T09:31:18;101282.50;;;5.26;84.05
76847;BME280;65813;49.546;8.644;2023-02-01T09:35:18;101293.47;;;5.38;83.20
76847;BME280;65813;49.546;8.644;2023-02-01T09:39:19;101296.34;;;5.32;82.99
76847;BME280;65813;49.546;8.644;2023-02-01T09:43:46;101287.28;;;5.39;82.72
76847;BME280;65813;49.546;8.644;2023-02-01T09:47:55;101301.25;;;5.43;82.45
76847;BME280;65813;49.546;8.644;2023-02-01T09:51:59;101326.66;;;5.45;82.82
76847;BME280;65813;49.546;8.644;2023-02-01T09:56:05;101332.94;;;5.43;81.95
76847;BME280;65813;49.546;8.644;2023-02-01T10:00:16;101340.28;;;5.35;82.03
76847;BME280;65813;49.546;8.644;2023-02-01T10:04:18;101351.56;;;5.40;81.51
76847;BME280;65813;49.546;8.644;2023-02-01T10:17:45;101348.16;;;5.59;77.50
76847;BME280;65813;49.546;8.644;2023-02-01T10:22:59;101350.06;;;5.56;76.16
76847;BME280;65813;49.546;8.644;2023-02-01T10:26:42;101348.34;;;5.55;76.05
76847;BME280;65813;49.546;8.644;2023-02-01T10:30:46;101354.47;;;5.55;75.67
76847;BME280;65813;49.546;8.644;2023-02-01T10:34:58;101356.84;;;5.63;75.61
76847;BME280;65813;49.546;8.644;2023-02-01T10:39:00;101344.44;;;5.65;74.51
76847;BME280;65813;49.546;8.644;2023-02-01T10:43:01;101346.25;;;5.63;75.43
76847;BME280;65813;49.546;8.644;2023-02-01T10:47:03;101335.44;;;5.69;73.09
76847;BME280;65813;49.546;8.644;2023-02-01T10:51:12;101336.28;;;5.71;73.04
76847;BME280;65813;49.546;8.644;2023-02-01T10:59:29;101328.22;;;5.74;72.99
76847;BME280;65813;49.546;8.644;2023-02-01T11:03:39;101314.31;;;5.69;73.88
76847;BME280;65813;49.546;8.644;2023-02-01T11:07:46;101291.34;;;5.71;73.39
76847;BME280;65813;49.546;8.644;2023-02-01T11:15:55;101285.16;;;5.72;73.91
76847;BME280;65813;49.546;8.644;2023-02-01T11:20:19;101277.38;;;5.68;73.78
76847;BME280;65813;49.546;8.644;2023-02-01T11:24:28;101272.03;;;5.69;73.51
76847;BME280;65813;49.546;8.644;2023-02-01T11:28:32;101289.31;;;5.78;71.74
76847;BME280;65813;49.546;8.644;2023-02-01T11:32:34;101269.94;;;5.77;71.73
76847;BME280;65813;49.546;8.644;2023-02-01T11:36:35;101278.66;;;5.79;71.92
76847;BME280;65813;49.546;8.644;2023-02-01T11:40:37;101288.69;;;5.71;72.98
76847;BME280;65813;49.546;8.644;2023-02-01T11:45:19;101276.34;;;5.72;73.08
76847;BME280;65813;49.546;8.644;2023-02-01T11:49:24;101279.84;;;5.72;72.30
76847;BME280;65813;49.546;8.644;2023-02-01T11:54:02;101265.44;;;5.79;71.63
76847;BME280;65813;49.546;8.644;2023-02-01T11:58:32;101266.28;;;5.81;70.94
76847;BME280;65813;49.546;8.644;2023-02-01T12:11:48;101270.25;;;5.93;70.25
76847;BME280;65813;49.546;8.644;2023-02-01T12:16:16;101265.75;;;5.95;69.50
76847;BME280;65813;49.546;8.644;2023-02-01T12:33:58;101264.09;;;5.92;70.33
76847;BME280;65813;49.546;8.644;2023-02-01T12:38:21;101265.06;;;5.90;71.33
76847;BME280;65813;49.546;8.644;2023-02-01T12:42:31;101260.63;;;5.90;71.60
76847;BME280;65813;49.546;8.644;2023-02-01T12:46:40;101245.50;;;5.94;71.03
76847;BME280;65813;49.546;8.644;2023-02-01T12:55:20;101232.28;;;5.94;71.46
76847;BME280;65813;49.546;8.644;2023-02-01T12:59:40;101232.25;;;5.95;69.71
76847;BME280;65813;49.546;8.644;2023-02-01T13:03:52;101227.13;;;5.91;70.35
76847;BME280;65813;49.546;8.644;2023-02-01T13:07:59;101233.88;;;5.98;69.61
76847;BME280;65813;49.546;8.644;2023-02-01T13:12:15;101233.16;;;5.94;70.53
76847;BME280;65813;49.546;8.644;2023-02-01T13:16:27;101218.19;;;5.93;70.59
76847;BME280;65813;49.546;8.644;2023-02-01T13:20:40;101210.28;;;5.93;69.99
76847;BME280;65813;49.546;8.644;2023-02-01T13:24:46;101212.00;;;5.94;70.17
76847;BME280;65813;49.546;8.644;2023-02-01T13:28:52;101204.38;;;6.08;68.95
76847;BME280;65813;49.546;8.644;2023-02-01T13:37:32;101184.38;;;6.01;68.52
76847;BME280;65813;49.546;8.644;2023-02-01T13:45:53;101170.44;;;5.98;69.30
76847;BME280;65813;49.546;8.644;2023-02-01T13:49:58;101185.56;;;5.94;69.86
76847;BME280;65813;49.546;8.644;2023-02-01T13:54:00;101174.19;;;5.92;69.04
76847;BME280;65813;49.546;8.644;2023-02-01T13:58:21;101195.22;;;5.95;70.27
76847;BME280;65813;49.546;8.644;2023-02-01T14:06:42;101182.91;;;5.94;69.17
76847;BME280;65813;49.546;8.644;2023-02-01T14:14:44;101193.22;;;6.00;69.07
76847;BME280;65813;49.546;8.644;2023-02-01T14:22:46;101195.88;;;6.00;68.34
76847;BME280;65813;49.546;8.644;2023-02-01T14:26:51;101208.19;;;6.01;68.36
76847;BME280;65813;49.546;8.644;2023-02-01T14:30:54;101201.16;;;6.00;69.38
76847;BME280;65813;49.546;8.644;2023-02-01T14:34:59;101195.44;;;6.11;67.52
76847;BME280;65813;49.546;8.644;2023-02-01T14:39:00;101207.69;;;6.14;67.99
76847;BME280;65813;49.546;8.644;2023-02-01T14:43:00;101198.81;;;6.15;67.93
76847;BME280;65813;49.546;8.644;2023-02-01T14:47:29;101195.06;;;6.20;67.76
76847;BME280;65813;49.546;8.644;2023-02-01T14:51:30;101172.72;;;6.27;67.12
76847;BME280;65813;49.546;8.644;2023-02-01T14:59:34;101189.69;;;6.22;66.60
76847;BME280;65813;49.546;8.644;2023-02-01T15:07:42;101190.69;;;6.19;66.47
76847;BME280;65813;49.546;8.644;2023-02-01T15:12:09;101196.31;;;6.32;65.17
76847;BME280;65813;49.546;8.644;2023-02-01T15:16:16;101200.94;;;6.27;66.35
76847;BME280;65813;49.546;8.644;2023-02-01T15:20:21;101194.25;;;6.38;65.20
76847;BME280;65813;49.546;8.644;2023-02-01T15:24:26;101189.56;;;6.25;65.88
76847;BME280;65813;49.546;8.644;2023-02-01T15:28:27;101181.38;;;6.31;65.65
76847;BME280;65813;49.546;8.644;2023-02-01T15:36:29;101175.69;;;6.40;64.76
76847;BME280;65813;49.546;8.644;2023-02-01T15:40:31;101182.81;;;6.38;65.60
76847;BME280;65813;49.546;8.644;2023-02-01T15:44:39;101187.19;;;6.39;65.29
76847;BME280;65813;49.546;8.644;2023-02-01T15:48:46;101200.28;;;6.42;65.41
76847;BME280;65813;49.546;8.644;2023-02-01T15:52:49;101187.25;;;6.37;66.00
76847;BME280;65813;49.546;8.644;2023-02-01T15:56:53;101201.28;;;6.39;65.37
76847;BME280;65813;49.546;8.644;2023-02-01T16:00:57;101202.00;;;6.43;65.31
76847;BME280;65813;49.546;8.644;2023-02-01T16:04:59;101203.00;;;6.40;66.07
76847;BME280;65813;49.546;8.644;2023-02-01T16:09:11;101205.69;;;6.39;65.70
76847;BME280;65813;49.546;8.644;2023-02-01T16:13:11;101190.75;;;6.38;65.90
76847;BME280;65813;49.546;8.644;2023-02-01T16:17:12;101188.78;;;6.43;65.40
76847;BME280;65813;49.546;8.644;2023-02-01T16:21:12;101194.97;;;6.42;65.69
76847;BME280;65813;49.546;8.644;2023-02-01T16:25:13;101190.75;;;6.38;65.69
76847;BME280;65813;49.546;8.644;2023-02-01T16:29:13;101190.81;;;6.36;66.19
76847;BME280;65813;49.546;8.644;2023-02-01T16:33:18;101193.28;;;6.41;65.76
76847;BME280;65813;49.546;8.644;2023-02-01T16:37:23;101198.63;;;6.39;66.70
76847;BME280;65813;49.546;8.644;2023-02-01T16:41:25;101217.88;;;6.43;66.62
76847;BME280;65813;49.546;8.644;2023-02-01T16:45:27;101213.00;;;6.34;67.08
76847;BME280;65813;49.546;8.644;2023-02-01T16:49:28;101208.44;;;6.37;67.18
76847;BME280;65813;49.546;8.644;2023-02-01T16:53:30;101206.69;;;6.36;67.55
76847;BME280;65813;49.546;8.644;2023-02-01T16:57:31;101207.84;;;6.31;67.96
76847;BME280;65813;49.546;8.644;2023-02-01T17:01:31;101206.03;;;6.31;68.02
76847;BME280;65813;49.546;8.644;2023-02-01T17:05:32;101196.97;;;6.37;67.41
76847;BME280;65813;49.546;8.644;2023-02-01T17:09:35;101201.69;;;6.30;67.89
76847;BME280;65813;49.546;8.644;2023-02-01T17:13:36;101205.06;;;6.34;67.86
76847;BME280;65813;49.546;8.644;2023-02-01T17:17:37;101198.16;;;6.30;68.59
76847;BME280;65813;49.546;8.644;2023-02-01T17:21:44;101201.19;;;6.21;69.24
76847;BME280;65813;49.546;8.644;2023-02-01T17:25:44;101201.69;;;6.30;68.55
76847;BME280;65813;49.546;8.644;2023-02-01T17:29:47;101198.94;;;6.32;68.14
76847;BME280;65813;49.546;8.644;2023-02-01T17:33:48;101198.69;;;6.38;67.93
76847;BME280;65813;49.546;8.644;2023-02-01T17:37:49;101196.38;;;6.30;68.34
76847;BME280;65813;49.546;8.644;2023-02-01T17:41:49;101192.00;;;6.29;67.96
76847;BME280;65813;49.546;8.644;2023-02-01T17:50:11;101195.91;;;6.21;68.62
76847;BME280;65813;49.546;8.644;2023-02-01T17:54:12;101195.78;;;6.24;68.32
76847;BME280;65813;49.546;8.644;2023-02-01T17:58:14;101205.97;;;6.13;69.29
76847;BME280;65813;49.546;8.644;2023-02-01T18:02:20;101198.75;;;6.16;69.06
76847;BME280;65813;49.546;8.644;2023-02-01T18:06:22;101212.84;;;6.17;68.41
76847;BME280;65813;49.546;8.644;2023-02-01T18:10:23;101210.34;;;6.14;68.75
76847;BME280;65813;49.546;8.644;2023-02-01T18:14:23;101205.16;;;6.10;69.11
76847;BME280;65813;49.546;8.644;2023-02-01T18:18:23;101205.97;;;6.13;69.24
76847;BME280;65813;49.546;8.644;2023-02-01T18:22:23;101199.19;;;6.05;70.00
76847;BME280;65813;49.546;8.644;2023-02-01T18:26:24;101203.69;;;6.03;69.65
76847;BME280;65813;49.546;8.644;2023-02-01T18:30:29;101205.28;;;6.07;69.54
76847;BME280;65813;49.546;8.644;2023-02-01T18:34:30;101201.59;;;6.12;69.20
76847;BME280;65813;49.546;8.644;2023-02-01T18:38:30;101206.88;;;6.12;69.02
76847;BME280;65813;49.546;8.644;2023-02-01T18:42:30;101216.00;;;6.04;69.31
76847;BME280;65813;49.546;8.644;2023-02-01T18:46:31;101216.00;;;6.04;69.35
76847;BME280;65813;49.546;8.644;2023-02-01T18:50:35;101226.56;;;6.04;69.89
76847;BME280;65813;49.546;8.644;2023-02-01T18:54:35;101222.88;;;6.08;69.51
76847;BME280;65813;49.546;8.644;2023-02-01T18:58:36;101221.53;;;5.98;70.28
76847;BME280;65813;49.546;8.644;2023-02-01T19:02:37;101227.47;;;6.03;69.99
76847;BME280;65813;49.546;8.644;2023-02-01T19:06:38;101214.38;;;6.00;70.23
76847;BME280;65813;49.546;8.644;2023-02-01T19:10:40;101231.72;;;6.07;69.63
76847;BME280;65813;49.546;8.644;2023-02-01T19:14:41;101218.75;;;6.01;70.17
76847;BME280;65813;49.546;8.644;2023-02-01T19:18:43;101213.66;;;5.97;70.51
76847;BME280;65813;49.546;8.644;2023-02-01T19:22:44;101226.22;;;5.92;71.03
76847;BME280;65813;49.546;8.644;2023-02-01T19:26:44;101222.72;;;5.91;70.80
76847;BME280;65813;49.546;8.644;2023-02-01T19:30:45;101225.22;;;5.94;70.42
76847;BME280;65813;49.546;8.644;2023-02-01T19:34:45;101234.75;;;5.98;70.19
76847;BME280;65813;49.546;8.644;2023-02-01T19:38:45;101224.72;;;6.06;70.27
76847;BME280;65813;49.546;8.644;2023-02-01T19:42:46;101237.00;;;6.07;69.89
76847;BME280;65813;49.546;8.644;2023-02-01T19:46:46;101235.22;;;6.08;70.11
76847;BME280;65813;49.546;8.644;2023-02-01T19:50:47;101220.34;;;6.05;70.20
76847;BME280;65813;49.546;8.644;2023-02-01T19:54:48;101231.50;;;6.14;69.96
76847;BME280;65813;49.546;8.644;2023-02-01T19:58:50;101226.38;;;6.09;70.93
76847;BME280;65813;49.546;8.644;2023-02-01T20:02:50;101238.47;;;6.15;70.63
76847;BME280;65813;49.546;8.644;2023-02-01T20:06:50;101232.53;;;6.09;70.81
76847;BME280;65813;49.546;8.644;2023-02-01T20:10:51;101236.66;;;6.17;70.36
76847;BME280;65813;49.546;8.644;2023-02-01T20:14:51;101241.81;;;6.20;70.14
76847;BME280;65813;49.546;8.644;2023-02-01T20:18:51;101249.00;;;6.16;70.15
76847;BME280;65813;49.546;8.644;2023-02-01T20:22:52;101252.19;;;6.24;69.84
76847;BME280;65813;49.546;8.644;2023-02-01T20:26:53;101250.25;;;6.28;69.64
76847;BME280;65813;49.546;8.644;2023-02-01T20:30:53;101251.94;;;6.30;69.58
76847;BME280;65813;49.546;8.644;2023-02-01T20:34:53;101253.66;;;6.31;69.84
76847;BME280;65813;49.546;8.644;2023-02-01T20:38:54;101260.66;;;6.32;69.87
76847;BME280;65813;49.546;8.644;2023-02-01T20:42:55;101276.66;;;6.29;69.91
76847;BME280;65813;49.546;8.644;2023-02-01T20:46:56;101273.97;;;6.31;69.36
76847;BME280;65813;49.546;8.644;2023-02-01T20:50:58;101279.13;;;6.34;69.95
76847;BME280;65813;49.546;8.644;2023-02-01T20:54:59;101267.69;;;6.33;69.43
76847;BME280;65813;49.546;8.644;2023-02-01T20:58:59;101266.03;;;6.31;70.10
76847;BME280;65813;49.546;8.644;2023-02-01T21:03:03;101247.00;;;6.43;69.29
76847;BME280;65813;49.546;8.644;2023-02-01T21:07:03;101249.03;;;6.36;69.40
76847;BME280;65813;49.546;8.644;2023-02-01T21:11:06;101240.41;;;6.31;69.92
76847;BME280;65813;49.546;8.644;2023-02-01T21:15:07;101232.56;;;6.30;70.35
76847;BME280;65813;49.546;8.644;2023-02-01T21:19:08;101233.22;;;6.35;69.84
76847;BME280;65813;49.546;8.644;2023-02-01T21:23:08;101233.75;;;6.43;69.58
76847;BME280;65813;49.546;8.644;2023-02-01T21:27:10;101254.38;;;6.35;70.01
76847;BME280;65813;49.546;8.644;2023-02-01T21:31:10;101254.38;;;6.35;70.23
76847;BME280;65813;49.546;8.644;2023-02-01T21:35:12;101257.25;;;6.30;70.35
76847;BME280;65813;49.546;8.644;2023-02-01T21:39:13;101224.47;;;6.13;70.35
76847;BME280;65813;49.546;8.644;2023-02-01T21:43:15;101228.16;;;6.08;70.43
76847;BME280;65813;49.546;8.644;2023-02-01T21:47:18;101197.13;;;5.92;71.11
76847;BME280;65813;49.546;8.644;2023-02-01T21:51:18;101243.63;;;6.18;70.90
76847;BME280;65813;49.546;8.644;2023-02-01T21:55:19;101223.00;;;6.05;71.07
76847;BME280;65813;49.546;8.644;2023-02-01T21:59:19;101242.72;;;6.19;71.11
76847;BME280;65813;49.546;8.644;2023-02-01T22:03:19;101235.69;;;6.18;71.00
76847;BME280;65813;49.546;8.644;2023-02-01T22:07:20;101225.53;;;6.08;71.36
76847;BME280;65813;49.546;8.644;2023-02-01T22:11:20;101231.50;;;6.14;71.07
